createdAt,value
2023-03-24T00:01:14.383Z,9.11
2023-03-24T00:04:01.274Z,8.48
2023-03-24T00:06:49.461Z,8.46
2023-03-24T00:09:36.776Z,8.62
2023-03-24T00:12:23.316Z,8.52
2023-03-24T00:15:12.648Z,8.22
2023-03-24T00:17:59.633Z,8.77
2023-03-24T00:20:46.554Z,8.65
2023-03-24T00:23:34.088Z,8.38
2023-03-24T00:26:20.759Z,8.40
2023-03-24T00:29:09.540Z,8.46
2023-03-24T00:31:55.601Z,8.79
2023-03-24T00:34:43.662Z,8.10
2023-03-24T00:37:30.034Z,8.14
2023-03-24T00:40:18.291Z,8.27
2023-03-24T00:43:04.650Z,8.03
2023-03-24T00:45:52.693Z,8.63
2023-03-24T00:48:42.067Z,8.75
2023-03-24T00:51:40.903Z,8.81
2023-03-24T00:54:27.908Z,8.85
2023-03-24T00:57:22.385Z,8.50
2023-03-24T01:00:14.548Z,8.32
2023-03-24T01:03:03.637Z,8.58
2023-03-24T01:05:50.233Z,8.78
2023-03-24T01:08:36.884Z,8.83
2023-03-24T01:11:24.570Z,8.30
2023-03-24T01:14:12.251Z,8.89
2023-03-24T01:16:59.390Z,8.35
2023-03-24T01:19:45.926Z,8.92
2023-03-24T01:22:31.724Z,8.24
2023-03-24T01:25:21.792Z,8.93
2023-03-24T01:28:07.822Z,8.62
2023-03-24T01:30:54.671Z,8.31
2023-03-24T01:33:40.834Z,9.04
2023-03-24T01:36:27.191Z,9.10
2023-03-24T01:39:13.647Z,8.54
2023-03-24T01:42:00.082Z,9.09
2023-03-24T01:44:48.364Z,9.11
2023-03-24T01:47:35.309Z,8.43
2023-03-24T01:50:22.092Z,8.30
2023-03-24T01:53:08.982Z,9.01
2023-03-24T01:55:56.482Z,9.08
2023-03-24T01:58:52.540Z,9.37
2023-03-24T02:01:44.308Z,8.66
2023-03-24T02:04:48.565Z,8.81
2023-03-24T02:07:40.236Z,9.39
2023-03-24T02:10:26.579Z,9.29
2023-03-24T02:13:12.594Z,9.33
2023-03-24T02:16:40.351Z,8.95
2023-03-24T02:19:40.256Z,9.27
2023-03-24T02:22:48.591Z,9.30
2023-03-24T02:25:56.200Z,9.25
2023-03-24T02:28:42.261Z,9.12
2023-03-24T02:31:47.097Z,9.14
2023-03-24T02:35:07.559Z,9.14
2023-03-24T02:38:12.425Z,9.21
2023-03-24T02:41:22.907Z,9.34
2023-03-24T02:44:14.480Z,9.37
2023-03-24T02:47:13.476Z,9.00
2023-03-24T02:50:20.232Z,8.72
2023-03-24T02:53:17.595Z,9.13
2023-03-24T02:56:32.793Z,9.28
2023-03-24T02:59:44.117Z,9.32
2023-03-24T03:03:13.980Z,9.04
2023-03-24T03:06:09.646Z,9.08
2023-03-24T03:08:58.856Z,9.27
2023-03-24T03:11:50.222Z,9.33
2023-03-24T03:14:42.166Z,8.77
2023-03-24T03:17:33.253Z,8.68
2023-03-24T03:20:23.446Z,9.18
2023-03-24T03:23:14.739Z,9.29
2023-03-24T03:26:06.700Z,8.92
2023-03-24T03:29:00.433Z,8.93
2023-03-24T03:31:53.268Z,8.98
2023-03-24T03:34:48.926Z,9.27
2023-03-24T03:37:50.561Z,9.10
2023-03-24T03:40:51.387Z,9.23
2023-03-24T03:43:40.712Z,8.91
2023-03-24T03:46:27.694Z,9.27
2023-03-24T03:49:14.861Z,8.62
2023-03-24T03:52:01.334Z,9.33
2023-03-24T03:54:47.472Z,9.33
2023-03-24T03:57:34.820Z,8.85
2023-03-24T04:00:44.492Z,8.56
2023-03-24T04:04:12.880Z,8.96
2023-03-24T04:07:58.486Z,9.25
2023-03-24T04:11:21.736Z,9.34
2023-03-24T04:14:37.935Z,9.12
2023-03-24T04:17:56.398Z,9.22
2023-03-24T04:21:14.010Z,9.12
2023-03-24T04:24:12.302Z,8.55
2023-03-24T04:27:14.736Z,9.10
2023-03-24T04:30:07.518Z,9.15
2023-03-24T04:33:00.397Z,8.63
2023-03-24T04:36:01.828Z,9.14
2023-03-24T04:38:58.774Z,9.11
2023-03-24T04:41:53.637Z,9.10
2023-03-24T04:44:45.718Z,9.06
2023-03-24T04:47:54.046Z,9.05
2023-03-24T04:50:57.878Z,9.01
2023-03-24T04:53:46.943Z,8.74
2023-03-24T04:56:50.202Z,9.00
2023-03-24T04:59:47.179Z,9.09
2023-03-24T05:02:34.451Z,8.93
2023-03-24T05:05:27.388Z,8.64
2023-03-24T05:08:15.580Z,9.06
2023-03-24T05:11:02.324Z,8.62
2023-03-24T05:13:49.832Z,8.83
2023-03-24T05:16:36.764Z,8.85
2023-03-24T05:19:23.894Z,8.90
2023-03-24T05:22:10.558Z,9.22
2023-03-24T05:24:56.394Z,9.21
2023-03-24T05:27:43.448Z,8.80
2023-03-24T05:30:37.529Z,9.08
2023-03-24T05:33:33.984Z,9.31
2023-03-24T05:36:20.940Z,8.59
2023-03-24T05:39:14.192Z,8.81
2023-03-24T05:42:09.106Z,9.46
2023-03-24T05:44:55.395Z,9.11
2023-03-24T05:47:47.214Z,9.52
2023-03-24T05:50:34.865Z,9.51
2023-03-24T05:53:21.019Z,9.18
2023-03-24T05:56:27.629Z,9.46
2023-03-24T05:59:31.986Z,9.41
2023-03-24T06:02:30.659Z,9.77
2023-03-24T06:05:24.440Z,9.80
2023-03-24T06:08:11.250Z,9.44
2023-03-24T06:11:02.678Z,9.74
2023-03-24T06:13:50.629Z,9.91
2023-03-24T06:16:39.471Z,9.95
2023-03-24T06:19:27.852Z,9.74
2023-03-24T06:22:34.690Z,9.80
2023-03-24T06:25:22.655Z,10.08
2023-03-24T06:28:22.553Z,10.11
2023-03-24T06:31:18.762Z,10.11
2023-03-24T06:34:05.219Z,9.92
2023-03-24T06:36:51.982Z,10.09
2023-03-24T06:39:38.565Z,9.36
2023-03-24T06:42:25.289Z,9.43
2023-03-24T06:45:11.995Z,9.71
2023-03-24T06:47:58.485Z,10.08
2023-03-24T06:50:44.732Z,10.34
2023-03-24T06:53:31.510Z,10.35
2023-03-24T06:56:20.231Z,10.14
2023-03-24T06:59:17.847Z,9.69
2023-03-24T07:02:04.696Z,10.25
2023-03-24T07:04:55.405Z,10.41
2023-03-24T07:11:02.719Z,10.23
2023-03-24T07:13:50.319Z,10.56
2023-03-24T07:16:37.210Z,10.46
2023-03-24T07:19:46.284Z,10.02
2023-03-24T07:22:51.811Z,10.53
2023-03-24T07:25:41.501Z,10.78
2023-03-24T07:28:37.026Z,10.82
2023-03-24T07:31:24.794Z,10.85
2023-03-24T07:34:18.352Z,10.63
2023-03-24T07:37:04.031Z,10.93
2023-03-24T07:39:50.547Z,10.74
2023-03-24T07:42:37.162Z,11.10
2023-03-24T07:45:46.118Z,11.20
2023-03-24T07:48:33.041Z,11.29
2023-03-24T07:51:20.245Z,11.12
2023-03-24T07:54:16.642Z,10.75
2023-03-24T07:57:09.742Z,11.17
2023-03-24T07:59:57.199Z,11.52
2023-03-24T08:03:01.866Z,11.00
2023-03-24T08:06:07.865Z,11.65
2023-03-24T08:09:04.847Z,11.12
2023-03-24T08:11:51.466Z,11.79
2023-03-24T08:14:38.715Z,11.42
2023-03-24T08:17:25.209Z,11.91
2023-03-24T08:20:14.896Z,11.98
2023-03-24T08:23:04.939Z,11.77
2023-03-24T08:25:51.866Z,11.57
2023-03-24T08:28:38.118Z,11.48
2023-03-24T08:31:24.955Z,12.15
2023-03-24T08:34:11.799Z,12.17
2023-03-24T08:36:58.580Z,11.78
2023-03-24T08:39:44.793Z,12.21
2023-03-24T08:42:31.191Z,12.19
2023-03-24T08:45:21.204Z,12.18
2023-03-24T08:48:09.473Z,12.15
2023-03-24T08:50:55.959Z,11.57
2023-03-24T08:53:43.540Z,12.04
2023-03-24T08:56:29.675Z,11.58
2023-03-24T08:59:16.768Z,11.43
2023-03-24T09:02:02.602Z,11.91
2023-03-24T09:04:54.148Z,11.73
2023-03-24T09:07:40.260Z,12.06
2023-03-24T09:10:28.198Z,12.08
2023-03-24T09:13:14.428Z,12.60
2023-03-24T09:16:03.192Z,12.63
2023-03-24T09:18:49.166Z,12.00
2023-03-24T09:21:36.410Z,12.35
2023-03-24T09:24:22.667Z,12.61
2023-03-24T09:27:09.221Z,12.32
2023-03-24T09:29:55.230Z,12.77
2023-03-24T09:32:42.972Z,12.53
2023-03-24T09:35:29.110Z,12.88
2023-03-24T09:38:15.383Z,13.21
2023-03-24T09:41:03.275Z,13.27
2023-03-24T09:44:07.178Z,13.33
2023-03-24T09:46:58.603Z,13.36
2023-03-24T09:49:45.723Z,13.45
2023-03-24T09:52:38.457Z,13.09
2023-03-24T09:55:27.134Z,13.27
2023-03-24T09:58:13.590Z,13.63
2023-03-24T10:00:59.987Z,13.55
2023-03-24T10:03:46.949Z,13.90
2023-03-24T10:06:40.293Z,13.73
2023-03-24T10:09:27.404Z,13.73
2023-03-24T10:12:22.844Z,13.70
2023-03-24T10:15:37.273Z,13.46
2023-03-24T10:19:09.438Z,14.11
2023-03-24T10:22:22.563Z,13.94
2023-03-24T10:25:22.714Z,14.06
2023-03-24T10:28:11.850Z,13.95
2023-03-24T10:31:01.363Z,13.48
2023-03-24T10:33:47.690Z,14.08
2023-03-24T10:36:34.486Z,13.62
2023-03-24T10:39:26.094Z,14.10
2023-03-24T10:42:25.820Z,13.46
2023-03-24T10:45:14.265Z,14.13
2023-03-24T10:48:02.380Z,13.80
2023-03-24T10:50:49.418Z,13.71
2023-03-24T10:53:35.782Z,14.17
2023-03-24T10:56:42.533Z,13.95
2023-03-24T10:59:38.870Z,13.75
2023-03-24T11:02:31.700Z,13.57
2023-03-24T11:05:20.479Z,14.08
2023-03-24T11:08:29.341Z,14.25
2023-03-24T11:11:25.113Z,13.99
2023-03-24T11:14:37.587Z,13.95
2023-03-24T11:17:24.244Z,14.18
2023-03-24T11:20:19.757Z,14.25
2023-03-24T11:23:14.201Z,13.67
2023-03-24T11:26:05.934Z,13.34
2023-03-24T11:28:54.580Z,13.56
2023-03-24T11:31:41.269Z,13.66
2023-03-24T11:34:39.373Z,13.48
2023-03-24T11:37:33.532Z,13.67
2023-03-24T11:40:23.366Z,13.63
2023-03-24T11:43:21.474Z,13.43
2023-03-24T11:46:20.889Z,13.66
2023-03-24T11:49:09.161Z,13.44
2023-03-24T11:51:56.209Z,13.85
2023-03-24T11:54:42.076Z,13.81
2023-03-24T11:57:41.272Z,13.25
2023-03-24T12:00:38.406Z,13.02
2023-03-24T12:03:46.848Z,13.48
2023-03-24T12:07:07.209Z,13.75
2023-03-24T12:09:59.274Z,13.60
2023-03-24T12:13:09.171Z,13.35
2023-03-24T12:16:09.158Z,13.57
2023-03-24T12:19:09.401Z,13.76
2023-03-24T12:22:29.153Z,13.79
2023-03-24T12:25:25.575Z,13.22
2023-03-24T12:28:12.078Z,13.69
2023-03-24T12:31:27.445Z,13.88
2023-03-24T12:34:29.380Z,13.89
2023-03-24T12:37:23.441Z,13.55
2023-03-24T12:40:42.522Z,13.75
2023-03-24T12:43:52.983Z,14.29
2023-03-24T12:47:01.799Z,14.41
2023-03-24T12:49:47.848Z,14.46
2023-03-24T12:53:07.752Z,14.45
2023-03-24T12:55:58.345Z,14.14
2023-03-24T12:58:58.951Z,14.43
2023-03-24T13:01:53.630Z,14.29
2023-03-24T13:04:42.685Z,14.52
2023-03-24T13:07:31.689Z,14.62
2023-03-24T13:10:27.842Z,14.72
2023-03-24T13:13:23.045Z,14.54
2023-03-24T13:16:16.653Z,14.35
2023-03-24T13:19:05.108Z,14.69
2023-03-24T13:21:52.708Z,14.89
2023-03-24T13:24:40.910Z,14.68
2023-03-24T13:27:33.436Z,14.81
2023-03-24T13:30:37.101Z,15.11
2023-03-24T13:33:28.649Z,15.14
2023-03-24T13:36:50.153Z,15.22
2023-03-24T13:39:37.921Z,14.91
2023-03-24T13:42:38.969Z,14.81
2023-03-24T13:45:53.333Z,15.03
2023-03-24T13:48:43.856Z,15.01
2023-03-24T13:51:31.685Z,14.94
2023-03-24T13:54:28.713Z,14.50
2023-03-24T13:57:20.917Z,14.93
2023-03-24T14:00:20.785Z,14.52
2023-03-24T14:03:33.994Z,14.42
2023-03-24T14:06:49.422Z,14.54
2023-03-24T14:10:02.901Z,14.68
2023-03-24T14:12:58.116Z,15.17
2023-03-24T14:15:58.809Z,14.65
2023-03-24T14:18:46.145Z,14.99
2023-03-24T14:21:34.757Z,14.98
2023-03-24T14:24:25.247Z,14.75
2023-03-24T14:27:36.030Z,14.94
2023-03-24T14:30:28.656Z,14.33
2023-03-24T14:33:24.944Z,14.85
2023-03-24T14:36:17.392Z,14.69
2023-03-24T14:39:11.512Z,14.94
2023-03-24T14:41:59.251Z,14.60
2023-03-24T14:44:49.636Z,14.67
2023-03-24T14:47:38.322Z,14.86
2023-03-24T14:50:26.073Z,14.22
2023-03-24T14:53:18.993Z,14.92
2023-03-24T14:56:08.093Z,14.86
2023-03-24T14:58:56.563Z,14.38
2023-03-24T15:01:45.729Z,14.19
2023-03-24T15:04:33.768Z,14.52
2023-03-24T15:07:20.147Z,14.57
2023-03-24T15:10:07.060Z,14.17
2023-03-24T15:12:53.316Z,14.56
2023-03-24T15:15:47.122Z,14.31
2023-03-24T15:18:34.032Z,13.67
2023-03-24T15:21:26.295Z,13.77
2023-03-24T15:24:21.734Z,14.08
2023-03-24T15:27:07.390Z,13.98
2023-03-24T15:29:56.231Z,13.70
2023-03-24T15:32:46.425Z,14.12
2023-03-24T15:35:34.175Z,13.81
2023-03-24T15:38:31.413Z,13.60
2023-03-24T15:41:19.100Z,14.05
2023-03-24T15:44:08.642Z,13.63
2023-03-24T15:46:59.320Z,13.80
2023-03-24T15:49:59.700Z,14.02
2023-03-24T15:52:59.537Z,13.97
2023-03-24T15:55:45.716Z,13.34
2023-03-24T15:58:32.462Z,13.74
2023-03-24T16:01:27.417Z,13.40
2023-03-24T16:04:16.643Z,13.03
2023-03-24T16:07:02.770Z,13.21
2023-03-24T16:09:58.105Z,12.92
2023-03-24T16:12:43.829Z,12.54
2023-03-24T16:15:29.980Z,12.31
2023-03-24T16:18:18.986Z,12.06
2023-03-24T16:21:28.301Z,12.53
2023-03-24T16:24:14.796Z,12.42
2023-03-24T16:27:00.952Z,12.06
2023-03-24T16:29:47.608Z,12.24
2023-03-24T16:32:33.634Z,11.67
2023-03-24T16:35:19.932Z,12.14
2023-03-24T16:38:06.210Z,11.64
2023-03-24T16:40:57.666Z,12.05
2023-03-24T16:43:45.571Z,12.00
2023-03-24T16:46:33.130Z,11.96
2023-03-24T16:49:19.872Z,11.63
2023-03-24T16:52:12.129Z,11.30
2023-03-24T16:54:58.419Z,11.29
2023-03-24T16:57:46.245Z,11.55
2023-03-24T17:00:36.468Z,11.84
2023-03-24T17:03:24.700Z,11.02
2023-03-24T17:06:13.877Z,11.07
2023-03-24T17:09:00.273Z,11.53
2023-03-24T17:11:54.723Z,11.48
2023-03-24T17:14:41.065Z,11.73
2023-03-24T17:17:29.141Z,11.44
2023-03-24T17:20:16.584Z,11.19
2023-03-24T17:23:03.486Z,10.77
2023-03-24T17:25:50.041Z,11.32
2023-03-24T17:28:37.345Z,10.94
2023-03-24T17:31:23.435Z,11.25
2023-03-24T17:37:05.084Z,11.20
2023-03-24T17:39:57.316Z,10.72
2023-03-24T17:42:46.493Z,11.06
2023-03-24T17:45:33.414Z,11.52
2023-03-24T17:48:20.603Z,11.51
2023-03-24T17:51:07.593Z,10.98
2023-03-24T17:53:53.963Z,10.91
2023-03-24T17:56:41.090Z,10.99
2023-03-24T17:59:28.856Z,11.08
2023-03-24T18:02:15.649Z,11.01
2023-03-24T18:05:02.396Z,10.80
2023-03-24T18:07:49.116Z,11.10
2023-03-24T18:10:36.313Z,10.55
2023-03-24T18:13:23.415Z,10.71
2023-03-24T18:16:20.570Z,10.96
2023-03-24T18:19:08.127Z,10.91
2023-03-24T18:21:54.679Z,10.97
2023-03-24T18:24:41.028Z,11.17
2023-03-24T18:27:27.274Z,10.52
2023-03-24T18:30:14.284Z,11.15
2023-03-24T18:33:01.841Z,11.14
2023-03-24T18:35:55.184Z,10.91
2023-03-24T18:38:40.960Z,11.10
2023-03-24T18:41:28.582Z,10.82
2023-03-24T18:44:15.836Z,10.26
2023-03-24T18:47:02.194Z,10.99
2023-03-24T18:49:47.903Z,10.81
2023-03-24T18:52:34.356Z,10.80
2023-03-24T18:55:21.880Z,10.91
2023-03-24T18:58:15.174Z,10.39
2023-03-24T19:01:11.426Z,10.88
2023-03-24T19:03:58.543Z,10.74
2023-03-24T19:06:45.104Z,10.14
2023-03-24T19:09:31.721Z,10.68
2023-03-24T19:12:19.448Z,10.56
2023-03-24T19:15:07.249Z,10.55
2023-03-24T19:17:53.334Z,10.78
2023-03-24T19:20:40.941Z,10.02
2023-03-24T19:23:27.085Z,10.53
2023-03-24T19:26:14.154Z,9.78
2023-03-24T19:29:00.194Z,10.07
2023-03-24T19:31:47.626Z,10.25
2023-03-24T19:34:33.678Z,10.21
2023-03-24T19:37:22.273Z,9.89
2023-03-24T19:40:11.973Z,10.32
2023-03-24T19:42:58.724Z,10.25
2023-03-24T19:45:52.369Z,9.88
2023-03-24T19:48:39.144Z,10.16
2023-03-24T19:51:25.269Z,9.85
2023-03-24T19:54:12.794Z,10.25
2023-03-24T19:56:59.110Z,9.96
2023-03-24T19:59:45.849Z,10.15
2023-03-24T20:02:33.228Z,10.08
2023-03-24T20:05:20.330Z,10.06
2023-03-24T20:08:06.658Z,9.52
2023-03-24T20:10:53.373Z,9.60
2023-03-24T20:13:40.097Z,9.19
2023-03-24T20:16:27.160Z,9.26
2023-03-24T20:19:13.298Z,9.73
2023-03-24T20:21:59.842Z,9.45
2023-03-24T20:24:48.014Z,9.68
2023-03-24T20:27:36.961Z,9.94
2023-03-24T20:30:24.400Z,8.99
2023-03-24T20:33:10.928Z,9.48
2023-03-24T20:35:57.720Z,9.40
2023-03-24T20:38:44.275Z,9.41
2023-03-24T20:41:31.002Z,9.63
2023-03-24T20:44:17.956Z,9.26
2023-03-24T20:47:04.570Z,9.34
2023-03-24T20:49:51.217Z,9.96
2023-03-24T20:52:37.520Z,9.51
2023-03-24T20:55:24.229Z,9.92
2023-03-24T20:58:11.361Z,9.87
2023-03-24T21:00:58.504Z,9.80
2023-03-24T21:03:44.532Z,9.10
2023-03-24T21:06:31.657Z,9.24
2023-03-24T21:09:18.031Z,9.23
2023-03-24T21:12:06.762Z,9.20
2023-03-24T21:14:52.812Z,9.52
2023-03-24T21:17:40.422Z,9.15
2023-03-24T21:20:28.556Z,9.31
2023-03-24T21:23:15.105Z,9.59
2023-03-24T21:26:03.339Z,8.99
2023-03-24T21:28:50.226Z,9.52
2023-03-24T21:31:36.644Z,9.23
2023-03-24T21:34:23.428Z,9.08
2023-03-24T21:37:09.934Z,8.84
2023-03-24T21:39:57.037Z,9.44
2023-03-24T21:42:46.924Z,9.45
2023-03-24T21:45:33.662Z,8.66
2023-03-24T21:48:21.329Z,8.56
2023-03-24T21:51:08.212Z,9.35
2023-03-24T21:53:59.523Z,8.66
2023-03-24T21:56:47.284Z,8.96
2023-03-24T21:59:33.719Z,9.08
2023-03-24T22:02:20.690Z,8.88
2023-03-24T22:05:08.319Z,9.10
2023-03-24T22:07:56.213Z,8.88
2023-03-24T22:10:43.478Z,8.60
2023-03-24T22:13:31.649Z,9.42
2023-03-24T22:16:17.678Z,8.60
2023-03-24T22:19:04.583Z,8.94
2023-03-24T22:22:00.636Z,9.21
2023-03-24T22:24:46.764Z,9.26
2023-03-24T22:27:32.564Z,8.50
2023-03-24T22:30:19.438Z,8.55
2023-03-24T22:33:10.580Z,9.06
2023-03-24T22:36:07.358Z,8.71
2023-03-24T22:39:04.096Z,8.81
2023-03-24T22:41:50.544Z,8.93
2023-03-24T22:44:36.920Z,8.39
2023-03-24T22:47:29.284Z,8.71
2023-03-24T22:50:21.477Z,9.09
2023-03-24T22:53:09.231Z,8.88
2023-03-24T22:56:09.742Z,8.92
2023-03-24T22:59:24.476Z,8.64
2023-03-24T23:02:23.667Z,8.63
2023-03-24T23:05:33.365Z,8.85
2023-03-24T23:09:24.889Z,8.95
2023-03-24T23:13:32.940Z,8.92
2023-03-24T23:16:31.414Z,8.34
2023-03-24T23:19:26.415Z,8.70
2023-03-24T23:22:17.665Z,8.63
2023-03-24T23:46:08.047Z,8.75
2023-03-24T23:48:55.035Z,8.86
2023-03-24T23:51:41.556Z,8.80
2023-03-24T23:54:30.581Z,8.81
2023-03-24T23:57:17.507Z,8.92
